Time;durP1;ratioP1;P1;durP2;ratioP2;P2;SDS_P1;SDS_P2;PMS_P1;PMS_P2;Temp;Humidity;BMP_temperature;BMP_pressure;BME280_temperature;BME280_humidity;BME280_pressure;Samples;Min_cycle;Max_cycle;Signal;HPM_P1;HPM_P2
2023/08/09 00:01:54;;;;;;;4.50;2.60;;;15.00;99.90;;;14.45;100.00;101406.09;4152746;28;20145;-73
2023/08/09 00:03:54;;;;;;;7.13;3.10;;;15.00;99.90;;;14.40;100.00;101403.94;4136808;28;20030;-73
2023/08/09 00:05:55;;;;;;;6.07;3.40;;;15.00;99.90;;;14.44;100.00;101417.72;4136775;28;20019;-73
2023/08/09 00:07:56;;;;;;;7.22;3.28;;;15.00;99.90;;;14.40;100.00;101418.03;4137741;28;20033;-73
2023/08/09 00:09:57;;;;;;;6.10;2.67;;;15.00;99.90;;;14.35;100.00;101408.91;4136816;28;20112;-73
2023/08/09 00:11:58;;;;;;;4.70;2.28;;;14.90;99.90;;;14.40;100.00;101423.34;4136671;28;20026;-73
2023/08/09 00:13:59;;;;;;;5.47;3.33;;;14.90;99.90;;;14.37;100.00;101418.38;4137857;28;20026;-73
2023/08/09 00:16:00;;;;;;;4.05;2.28;;;14.90;99.90;;;14.36;100.00;101408.75;4136132;28;20030;-73
2023/08/09 00:18:01;;;;;;;5.20;2.53;;;14.90;99.90;;;14.38;100.00;101413.91;4136593;28;20030;-73
2023/08/09 00:20:04;;;;;;;6.03;3.10;;;14.90;99.90;;;14.38;100.00;101424.50;4120374;28;20122;-73
2023/08/09 00:22:05;;;;;;;6.00;3.20;;;14.90;99.90;;;14.33;100.00;101427.66;4137589;28;20023;-73
2023/08/09 00:24:06;;;;;;;5.97;2.50;;;14.90;99.90;;;14.32;100.00;101419.81;4136359;28;20037;-73
2023/08/09 00:26:07;;;;;;;6.65;3.10;;;14.90;99.90;;;14.19;100.00;101398.22;4136457;28;20105;-72
2023/08/09 00:28:07;;;;;;;5.20;2.78;;;14.90;99.90;;;14.29;100.00;101414.84;4137644;28;20026;-73
2023/08/09 00:30:12;;;;;;;7.20;3.33;;;14.90;99.90;;;14.31;100.00;101419.00;4137455;28;20042;-73
2023/08/09 00:32:13;;;;;;;5.20;2.70;;;14.90;99.90;;;14.30;100.00;101421.81;4135988;28;20040;-73
2023/08/09 00:34:14;;;;;;;4.50;3.10;;;14.80;99.90;;;14.29;100.00;101420.16;4136391;28;20529;-73
2023/08/09 00:36:15;;;;;;;8.50;4.00;;;14.80;99.90;;;14.26;100.00;101418.66;4136563;28;20033;-73
2023/08/09 00:38:17;;;;;;;6.65;3.33;;;14.80;99.90;;;14.24;100.00;101410.03;4137428;28;20506;-73
2023/08/09 00:40:17;;;;;;;8.32;2.85;;;14.80;99.90;;;14.23;100.00;101410.19;4136486;28;20026;-73
2023/08/09 00:42:18;;;;;;;9.82;2.83;;;14.80;99.90;;;14.25;100.00;101419.63;4121411;28;20034;-73
2023/08/09 00:44:19;;;;;;;10.10;3.53;;;14.80;99.90;;;14.24;100.00;101406.56;4121486;28;20030;-73
2023/08/09 00:46:22;;;;;;;5.47;3.28;;;14.80;99.90;;;14.24;100.00;101412.69;4125634;28;20027;-73
2023/08/09 00:48:23;;;;;;;6.40;3.30;;;14.80;99.90;;;14.27;100.00;101417.69;4133518;28;20105;-73
2023/08/09 00:50:24;;;;;;;7.80;2.95;;;14.80;99.90;;;14.28;100.00;101421.13;4135956;28;20065;-72
2023/08/09 00:52:26;;;;;;;13.27;3.17;;;14.80;99.90;;;14.28;100.00;101426.44;4135753;28;20506;-73
2023/08/09 00:54:27;;;;;;;5.60;3.00;;;14.80;99.90;;;14.29;100.00;101426.28;4135982;28;20022;-72
2023/08/09 00:56:29;;;;;;;5.22;3.00;;;14.80;99.90;;;14.29;100.00;101425.47;4123769;28;20027;-73
2023/08/09 00:58:29;;;;;;;5.05;2.25;;;14.80;99.90;;;14.28;100.00;101424.63;4119900;28;20098;-73
2023/08/09 01:00:31;;;;;;;5.68;2.60;;;14.80;99.90;;;14.28;100.00;101431.75;4119799;28;20577;-73
2023/08/09 01:02:32;;;;;;;5.75;3.13;;;14.80;99.90;;;14.25;100.00;101424.94;4120910;28;20055;-73
2023/08/09 01:04:33;;;;;;;3.35;2.47;;;14.80;99.90;;;14.20;100.00;101421.97;4119723;28;20446;-73
2023/08/09 01:06:53;;;;;;;5.15;3.33;;;14.80;99.90;;;14.23;100.00;101418.97;4121027;28;20058;-72
2023/08/09 01:09:37;;;;;;;7.28;2.97;;;14.80;99.90;;;14.22;100.00;101430.59;4119868;28;20034;-73
2023/08/09 01:11:57;;;;;;;5.78;2.80;;;14.80;99.90;;;14.19;100.00;101422.94;4126135;28;20555;-73
2023/08/09 01:13:59;;;;;;;5.80;2.70;;;14.70;99.90;;;14.17;100.00;101427.59;4135747;28;20096;-73
2023/08/09 01:16:01;;;;;;;4.10;2.67;;;14.70;99.90;;;14.13;100.00;101420.94;4130148;28;20034;-73
2023/08/09 01:18:04;;;;;;;5.03;3.22;;;14.70;99.90;;;14.16;100.00;101430.41;4136892;28;20041;-73
2023/08/09 01:20:11;;;;;;;5.13;2.70;;;14.70;99.90;;;14.16;100.00;101436.53;4135696;28;20367;-73
2023/08/09 01:22:23;;;;;;;7.22;3.08;;;14.70;99.90;;;14.14;100.00;101430.56;4131682;28;20030;-73
2023/08/09 01:24:25;;;;;;;7.28;3.15;;;14.70;99.90;;;14.12;100.00;101435.22;4135093;28;20037;-73
2023/08/09 01:26:25;;;;;;;6.55;3.10;;;14.70;99.90;;;14.14;100.00;101433.22;4119533;28;20026;-73
2023/08/09 01:28:26;;;;;;;7.75;3.95;;;14.70;99.90;;;14.12;100.00;101435.22;4119421;28;20037;-73
2023/08/09 01:30:27;;;;;;;6.35;2.58;;;14.70;99.90;;;14.11;100.00;101436.19;4119168;28;20387;-73
2023/08/09 01:32:29;;;;;;;6.15;3.47;;;14.70;99.90;;;14.12;100.00;101442.34;4118980;28;20038;-73
2023/08/09 01:34:30;;;;;;;4.78;2.63;;;14.70;99.90;;;14.08;100.00;101438.34;4119395;28;20077;-73
2023/08/09 01:36:36;;;;;;;5.93;2.67;;;14.60;99.90;;;14.05;100.00;101433.38;4119369;28;20101;-73
2023/08/09 01:38:54;;;;;;;5.13;2.90;;;14.60;99.90;;;14.05;100.00;101430.72;4119494;28;20026;-73
2023/08/09 01:40:56;;;;;;;4.90;2.97;;;14.60;99.90;;;14.03;100.00;101430.03;4144836;28;20026;-72
2023/08/09 01:42:58;;;;;;;4.95;3.20;;;14.60;99.90;;;14.02;100.00;101429.22;4120459;28;20066;-73
2023/08/09 01:44:59;;;;;;;6.53;3.42;;;14.60;99.90;;;14.00;100.00;101425.91;4119200;28;20491;-73
2023/08/09 01:47:00;;;;;;;7.43;3.03;;;14.60;99.90;;;13.98;100.00;101425.22;4130905;28;20529;-73
2023/08/09 01:49:15;;;;;;;6.10;2.83;;;14.50;99.90;;;13.96;100.00;101419.25;4124708;28;20026;-73
2023/08/09 01:51:16;;;;;;;5.70;2.63;;;14.50;99.90;;;13.97;100.00;101420.09;4135264;28;20433;-73
2023/08/09 01:53:17;;;;;;;6.90;3.50;;;14.50;99.90;;;13.99;100.00;101423.41;4120186;28;20030;-73
2023/08/09 01:55:19;;;;;;;7.75;3.30;;;14.50;99.90;;;13.96;100.00;101416.59;4120322;28;20403;-73
2023/08/09 01:57:20;;;;;;;4.75;3.70;;;14.50;99.90;;;13.97;100.00;101420.91;4119124;28;20035;-73
2023/08/09 01:59:23;;;;;;;7.65;3.92;;;14.50;99.90;;;13.97;100.00;101420.09;4120126;28;20041;-73
2023/08/09 02:01:23;;;;;;;8.35;4.10;;;14.50;99.90;;;13.96;100.00;101418.41;4119748;28;20031;-73
2023/08/09 02:03:25;;;;;;;7.20;4.15;;;14.50;99.90;;;13.96;100.00;101418.41;4120311;28;20062;-73
2023/08/09 02:05:26;;;;;;;6.35;3.25;;;14.50;99.90;;;13.95;100.00;101414.91;4120232;28;20074;-73
2023/08/09 02:07:27;;;;;;;7.10;3.75;;;14.50;99.90;;;13.92;100.00;101409.13;4120129;28;20030;-73
2023/08/09 02:09:28;;;;;;;5.65;2.85;;;14.50;99.90;;;13.93;100.00;101408.97;4118927;28;20023;-73
2023/08/09 02:11:29;;;;;;;6.80;2.90;;;14.50;99.90;;;13.89;100.00;101402.31;4120120;28;20037;-73
2023/08/09 02:13:30;;;;;;;9.02;3.47;;;14.40;99.90;;;13.89;100.00;101394.34;4120114;28;20023;-73
2023/08/09 02:15:31;;;;;;;10.15;4.18;;;14.40;99.90;;;13.92;100.00;101403.84;4121009;28;20027;-73
2023/08/09 02:17:32;;;;;;;5.75;3.65;;;14.40;99.90;;;13.90;100.00;101400.50;4132994;28;20478;-73
2023/08/09 02:19:33;;;;;;;6.15;4.25;;;14.40;99.90;;;13.92;100.00;101401.97;4135016;28;20522;-73
2023/08/09 02:21:37;;;;;;;8.45;3.92;;;14.40;99.90;;;13.93;100.00;101406.31;4135954;28;20033;-73
2023/08/09 02:23:39;;;;;;;5.63;3.67;;;14.50;99.90;;;13.87;100.00;101388.38;4134908;28;20034;-73
2023/08/09 02:25:39;;;;;;;7.20;3.60;;;14.40;99.90;;;13.91;100.00;101395.03;4134742;28;20513;-73
2023/08/09 02:27:40;;;;;;;9.63;4.32;;;14.40;99.90;;;13.93;100.00;101403.66;4136162;28;20035;-72
2023/08/09 02:29:41;;;;;;;7.05;4.20;;;14.50;99.90;;;13.94;100.00;101404.50;4134742;28;20035;-73
2023/08/09 02:31:43;;;;;;;7.43;4.07;;;14.50;99.90;;;13.94;100.00;101410.63;4134567;28;20035;-73
2023/08/09 02:33:44;;;;;;;9.00;4.53;;;14.50;99.90;;;13.93;100.00;101403.66;4135913;28;20053;-72
2023/08/09 02:36:00;;;;;;;10.02;4.13;;;14.50;99.90;;;13.96;100.00;101408.63;4135965;28;20034;-73
2023/08/09 02:38:01;;;;;;;7.22;3.83;;;14.50;99.90;;;13.94;100.00;101405.31;4137851;28;20422;-73
2023/08/09 02:40:04;;;;;;;5.63;4.03;;;14.50;99.90;;;13.93;100.00;101402.81;4139191;28;20037;-73
2023/08/09 02:42:05;;;;;;;8.23;3.20;;;14.50;99.90;;;13.92;100.00;101406.47;4137773;28;20158;-73
2023/08/09 02:44:06;;;;;;;6.07;3.65;;;14.50;99.90;;;13.90;100.00;101409.28;4138122;28;20034;-73
2023/08/09 02:46:07;;;;;;;6.30;2.92;;;14.50;99.90;;;13.90;100.00;101408.44;4137610;28;20026;-73
2023/08/09 02:48:08;;;;;;;4.18;2.97;;;14.50;99.90;;;13.87;100.00;101406.94;4154129;28;20025;-73
2023/08/09 02:50:09;;;;;;;5.97;2.83;;;14.40;99.90;;;13.85;100.00;101417.72;4137425;28;20371;-73
2023/08/09 02:52:10;;;;;;;5.60;3.60;;;14.40;99.90;;;13.81;100.00;101408.44;4121693;28;20501;-73
2023/08/09 02:54:11;;;;;;;5.22;3.03;;;14.40;99.90;;;13.81;100.00;101413.72;4121762;28;20078;-73
2023/08/09 02:56:12;;;;;;;4.97;2.70;;;14.40;99.90;;;13.80;100.00;101413.88;4144030;28;20025;-73
2023/08/09 02:58:13;;;;;;;5.03;3.15;;;14.30;99.90;;;13.77;100.00;101415.03;4124761;28;20038;-73
2023/08/09 03:00:16;;;;;;;7.38;2.70;;;14.30;99.90;;;13.73;100.00;101416.38;4122853;28;20482;-73
2023/08/09 03:02:17;;;;;;;5.72;2.90;;;14.30;99.90;;;13.66;100.00;101410.03;4122561;28;20062;-73
2023/08/09 03:04:18;;;;;;;3.92;2.40;;;14.20;99.90;;;13.65;100.00;101416.31;4121650;28;20023;-73
2023/08/09 03:06:22;;;;;;;7.05;2.97;;;14.20;99.90;;;13.58;100.00;101406.50;4122578;28;20042;-73
2023/08/09 03:08:23;;;;;;;5.63;2.80;;;14.20;99.90;;;13.55;100.00;101404.19;4121594;28;20087;-73
2023/08/09 03:10:24;;;;;;;8.10;4.00;;;14.20;99.90;;;13.60;100.00;101412.47;4122779;28;20030;-73
2023/08/09 03:12:25;;;;;;;5.40;3.20;;;14.10;99.90;;;13.60;100.00;101417.78;4122548;28;20466;-73
2023/08/09 03:14:26;;;;;;;7.60;3.47;;;14.10;99.90;;;13.59;100.00;101411.66;4122502;28;20038;-73
2023/08/09 03:16:27;;;;;;;5.93;3.85;;;14.20;99.90;;;13.60;100.00;101417.78;4130825;28;20504;-72
2023/08/09 03:18:28;;;;;;;7.28;3.67;;;14.20;99.90;;;13.63;100.00;101417.47;4137618;28;20019;-73
2023/08/09 03:20:29;;;;;;;6.85;3.55;;;14.20;99.90;;;13.62;100.00;101415.81;4137419;28;20041;-73
2023/08/09 03:22:30;;;;;;;5.97;3.65;;;14.20;99.90;;;13.64;100.00;101425.28;4153419;28;20032;-73
2023/08/09 03:24:30;;;;;;;6.55;3.88;;;14.20;99.90;;;13.66;100.00;101422.44;4138765;28;20030;-73
2023/08/09 03:26:32;;;;;;;4.40;3.53;;;14.20;99.90;;;13.69;100.00;101428.28;4138650;28;20018;-73
2023/08/09 03:28:33;;;;;;;7.97;4.50;;;14.20;99.90;;;13.69;100.00;101422.13;4138511;28;20085;-72
2023/08/09 03:30:34;;;;;;;9.60;4.18;;;14.20;99.90;;;13.71;100.00;101423.63;4136344;28;20134;-73
2023/08/09 03:32:37;;;;;;;7.15;4.20;;;14.20;99.90;;;13.73;100.00;101423.47;4152561;28;20026;-73
2023/08/09 03:34:38;;;;;;;9.13;3.92;;;14.20;99.90;;;13.69;100.00;101420.31;4136356;28;20026;-73
2023/08/09 03:36:39;;;;;;;6.88;4.38;;;14.30;99.90;;;13.66;100.00;101411.84;4137451;28;20397;-72
2023/08/09 03:38:40;;;;;;;8.30;4.15;;;14.30;99.90;;;13.69;100.00;101425.63;4136697;28;20034;-72
2023/08/09 03:40:41;;;;;;;6.78;3.95;;;14.30;99.90;;;13.69;100.00;101417.66;4132436;28;20027;-73
2023/08/09 03:42:43;;;;;;;9.43;3.97;;;14.30;99.90;;;13.69;100.00;101417.66;4121308;28;20034;-73
2023/08/09 03:44:44;;;;;;;7.43;4.25;;;14.20;99.90;;;13.67;100.00;101416.16;4120048;28;20078;-73
2023/08/09 03:46:44;;;;;;;8.32;4.15;;;14.20;99.90;;;13.66;100.00;101417.16;4146717;28;20022;-73
2023/08/09 03:48:45;;;;;;;6.38;3.63;;;14.20;99.90;;;13.67;100.00;101418.81;4136978;28;20037;-73
2023/08/09 03:50:46;;;;;;;7.40;4.13;;;14.20;99.90;;;13.64;100.00;101419.97;4129323;28;20569;-73
2023/08/09 03:52:47;;;;;;;7.95;4.20;;;14.20;99.90;;;13.63;100.00;101420.13;4121099;28;20027;-73
2023/08/09 03:54:52;;;;;;;8.00;4.00;;;14.20;99.90;;;13.61;100.00;101428.25;4132830;28;20551;-73
2023/08/09 03:56:52;;;;;;;7.15;4.07;;;14.20;99.90;;;13.50;100.00;101406.50;4121271;28;20022;-73
2023/08/09 03:58:53;;;;;;;7.07;4.32;;;14.20;99.90;;;13.60;100.00;101420.44;4121156;28;20106;-73
2023/08/09 04:00:54;;;;;;;8.55;4.43;;;14.20;99.90;;;13.56;100.00;101425.22;4120566;28;20442;-73
2023/08/09 04:02:56;;;;;;;7.45;4.35;;;14.10;99.90;;;13.56;100.00;101427.06;4120984;28;20034;-73
2023/08/09 04:04:57;;;;;;;7.20;3.85;;;14.10;99.90;;;13.58;100.00;101430.38;4119980;28;20022;-73
2023/08/09 04:06:58;;;;;;;6.88;4.20;;;14.10;99.90;;;13.52;100.00;101420.41;4121028;28;20490;-73
2023/08/09 04:09:00;;;;;;;7.55;4.05;;;14.10;99.90;;;13.54;100.00;101423.72;4119811;28;20027;-73
2023/08/09 04:11:00;;;;;;;5.07;3.50;;;14.10;99.90;;;13.55;100.00;101428.88;4119601;28;20031;-73
2023/08/09 04:13:02;;;;;;;6.20;4.25;;;14.10;99.90;;;13.55;100.00;101436.00;4130558;28;20038;-73
2023/08/09 04:15:04;;;;;;;7.88;3.92;;;14.10;99.90;;;13.53;100.00;101441.44;4120998;28;20030;-73
2023/08/09 04:17:06;;;;;;;8.10;3.80;;;14.10;99.90;;;13.52;100.00;101428.34;4135230;28;20038;-73
2023/08/09 04:19:07;;;;;;;6.90;4.20;;;14.10;99.90;;;13.53;100.00;101430.03;4135566;28;20038;-73
2023/08/09 04:21:07;;;;;;;8.85;4.30;;;14.10;99.90;;;13.53;100.00;101424.72;4135911;28;20027;-73
2023/08/09 04:23:08;;;;;;;5.85;3.53;;;14.10;99.90;;;13.53;100.00;101424.72;4151961;28;20026;-73
2023/08/09 04:25:10;;;;;;;6.30;4.07;;;14.10;99.90;;;13.53;100.00;101422.88;4135643;28;20026;-73
2023/08/09 04:27:11;;;;;;;8.55;4.40;;;14.10;99.90;;;13.52;100.00;101431.00;4136792;28;20029;-73
2023/08/09 04:29:12;;;;;;;7.40;4.13;;;14.10;99.90;;;13.57;100.00;101434.84;4106476;28;1212336;-73
2023/08/09 04:31:13;;;;;;;5.28;3.40;;;14.10;99.90;;;13.56;100.00;101433.16;4121488;28;20039;-73
2023/08/09 04:33:14;;;;;;;8.50;4.38;;;14.10;99.90;;;13.57;100.00;101431.34;4121406;28;20027;-73
2023/08/09 04:35:15;;;;;;;5.32;3.30;;;14.10;99.90;;;13.54;100.00;101429.00;4135091;28;20449;-73
2023/08/09 04:37:16;;;;;;;5.90;3.85;;;14.10;99.90;;;13.52;100.00;101444.25;4134517;28;20027;-73
2023/08/09 04:39:17;;;;;;;5.25;3.58;;;14.10;99.90;;;13.50;100.00;101439.09;4127081;28;20033;-73
2023/08/09 04:41:18;;;;;;;4.75;3.30;;;14.10;99.90;;;13.50;100.00;101438.28;4128755;28;20027;-73
2023/08/09 04:43:19;;;;;;;8.77;4.00;;;14.10;99.90;;;13.49;100.00;101441.94;4120125;28;20038;-73
2023/08/09 04:45:20;;;;;;;6.97;3.78;;;14.10;99.90;;;13.47;100.00;101451.88;4120049;28;20027;-73
2023/08/09 04:47:21;;;;;;;8.98;4.63;;;14.00;99.90;;;13.44;100.00;101449.53;4119987;28;20137;-72
2023/08/09 04:49:22;;;;;;;7.80;4.38;;;14.00;99.90;;;13.42;100.00;101449.66;4123862;28;20105;-73
2023/08/09 04:51:23;;;;;;;5.72;4.40;;;14.00;99.90;;;13.44;100.00;101455.63;4124795;28;20035;-73
2023/08/09 04:53:24;;;;;;;5.20;3.72;;;14.00;99.90;;;13.40;100.00;101448.16;4121033;28;20031;-72
2023/08/09 04:55:24;;;;;;;6.63;4.07;;;14.00;99.90;;;13.42;100.00;101456.78;4120108;28;20031;-73
2023/08/09 04:57:25;;;;;;;6.68;4.20;;;14.00;99.90;;;13.42;100.00;101451.47;4121174;28;20030;-73
2023/08/09 04:59:26;;;;;;;7.60;4.05;;;14.00;99.90;;;13.42;100.00;101452.31;4119184;28;20035;-73
2023/08/09 05:01:27;;;;;;;8.40;4.82;;;14.00;99.90;;;13.41;100.00;101463.09;4119464;28;20031;-73
2023/08/09 05:03:28;;;;;;;5.75;3.97;;;14.00;99.90;;;13.41;100.00;101458.59;4119944;28;20035;-73
2023/08/09 05:05:29;;;;;;;5.82;4.57;;;14.00;99.90;;;13.43;100.00;101458.44;4119862;28;20027;-73
2023/08/09 05:07:30;;;;;;;8.77;4.25;;;14.00;99.90;;;13.42;100.00;101459.44;4119735;28;20030;-73
2023/08/09 05:09:32;;;;;;;8.02;3.83;;;14.00;99.90;;;13.40;100.00;101456.13;4120795;28;20380;-73
2023/08/09 05:11:32;;;;;;;6.43;4.05;;;14.00;99.90;;;13.42;100.00;101462.09;4119729;28;20070;-73
2023/08/09 05:13:33;;;;;;;7.47;4.75;;;14.00;99.90;;;13.42;100.00;101451.47;4120799;28;20093;-73
2023/08/09 05:15:34;;;;;;;6.22;3.95;;;14.00;99.90;;;13.40;100.00;101464.91;4123222;28;20042;-73
2023/08/09 05:17:35;;;;;;;8.75;4.05;;;14.00;99.90;;;13.38;100.00;101455.44;4135341;28;20039;-73
2023/08/09 05:19:36;;;;;;;6.53;3.85;;;14.00;99.90;;;13.36;100.00;101450.28;4124514;28;20033;-73
2023/08/09 05:21:37;;;;;;;7.45;4.30;;;14.00;99.90;;;13.41;100.00;101463.91;4136763;28;20037;-73
2023/08/09 05:23:38;;;;;;;6.43;3.38;;;14.00;99.90;;;13.42;100.00;101464.72;4136782;28;20031;-73
2023/08/09 05:25:39;;;;;;;7.03;3.83;;;14.00;99.90;;;13.42;100.00;101465.56;4135195;28;20026;-73
2023/08/09 05:27:40;;;;;;;6.13;3.60;;;14.00;99.90;;;13.42;100.00;101467.38;4151784;28;20040;-73
2023/08/09 05:29:41;;;;;;;5.78;3.13;;;14.00;99.90;;;13.47;100.00;101473.06;4136593;28;20061;-73
2023/08/09 05:31:41;;;;;;;5.15;3.13;;;14.00;99.90;;;13.47;100.00;101468.56;4135231;28;20034;-73
2023/08/09 05:33:42;;;;;;;5.50;3.00;;;14.00;99.90;;;13.46;100.00;101468.75;4136593;28;20022;-72
2023/08/09 05:35:43;;;;;;;5.43;3.47;;;14.10;99.90;;;13.45;100.00;101470.56;4136610;28;20041;-73
2023/08/09 05:37:44;;;;;;;5.90;3.35;;;14.10;99.90;;;13.46;100.00;101464.28;4151594;28;20022;-73
2023/08/09 05:39:45;;;;;;;4.38;3.05;;;14.10;99.90;;;13.49;100.00;101473.72;4135326;28;20067;-73
2023/08/09 05:41:46;;;;;;;7.38;3.03;;;14.10;99.90;;;13.52;100.00;101471.59;4136430;28;20030;-73
2023/08/09 05:43:47;;;;;;;4.05;2.90;;;14.10;99.90;;;13.51;100.00;101467.28;4136354;28;20034;-72
2023/08/09 05:45:47;;;;;;;4.22;3.17;;;14.10;99.90;;;13.53;100.00;101473.25;4136350;28;20026;-72
2023/08/09 05:47:48;;;;;;;3.97;2.50;;;14.10;99.90;;;13.54;100.00;101469.63;4135538;28;20022;-72
2023/08/09 05:49:49;;;;;;;3.22;2.42;;;14.10;99.90;;;13.50;100.00;101470.91;4136357;28;20486;-73
2023/08/09 05:51:50;;;;;;;3.90;2.42;;;14.10;99.90;;;13.45;100.00;101467.06;4119726;28;20443;-72
2023/08/09 05:53:52;;;;;;;2.80;2.42;;;14.10;99.90;;;13.45;100.00;101478.50;4120354;28;20031;-73
2023/08/09 05:55:52;;;;;;;3.70;2.13;;;14.00;99.90;;;13.45;100.00;101477.66;4119129;28;20118;-73
2023/08/09 05:57:53;;;;;;;3.22;2.30;;;14.00;99.90;;;13.45;100.00;101480.31;4120193;28;20403;-73
2023/08/09 05:59:54;;;;;;;2.67;2.22;;;14.00;99.90;;;13.47;100.00;101475.72;4118939;28;20030;-73
2023/08/09 06:01:56;;;;;;;2.95;2.08;;;14.00;99.90;;;13.48;100.00;101472.06;4119978;28;20055;-73
2023/08/09 06:03:57;;;;;;;2.75;2.50;;;14.00;99.90;;;13.50;100.00;101470.09;4120231;28;20026;-73
2023/08/09 06:06:00;;;;;;;2.40;2.17;;;14.00;99.90;;;13.52;100.00;101479.56;4118888;28;20023;-73
2023/08/09 06:08:01;;;;;;;5.63;2.70;;;14.00;99.90;;;13.56;100.00;101472.13;4120013;28;20038;-73
2023/08/09 06:10:02;;;;;;;4.25;2.88;;;14.10;99.90;;;13.58;100.00;101475.44;4120411;28;20019;-72
2023/08/09 06:12:04;;;;;;;3.35;2.95;;;14.10;99.90;;;13.63;100.00;101476.63;4118728;28;20066;-73
2023/08/09 06:14:05;;;;;;;3.78;3.17;;;14.20;99.90;;;13.62;100.00;101468.84;4120199;28;20107;-73
2023/08/09 06:16:06;;;;;;;3.10;2.55;;;14.20;99.90;;;13.70;100.00;101476.81;4125274;28;20034;-73
2023/08/09 06:18:07;;;;;;;4.57;2.92;;;14.20;99.90;;;13.76;100.00;101473.53;4133058;28;20018;-73
2023/08/09 06:20:12;;;;;;;3.72;2.95;;;14.30;99.90;;;13.78;100.00;101466.25;4135722;28;20105;-73
2023/08/09 06:22:13;;;;;;;3.83;2.80;;;14.30;99.90;;;13.82;100.00;101459.66;4134442;28;20026;-72
2023/08/09 06:24:14;;;;;;;4.72;2.85;;;14.40;99.90;;;13.90;100.00;101467.63;4134967;28;20035;-73
2023/08/09 06:26:14;;;;;;;3.85;2.90;;;14.50;99.90;;;13.94;100.00;101468.16;4136345;28;20022;-72
2023/08/09 06:28:17;;;;;;;4.47;3.53;;;14.50;99.90;;;14.02;100.00;101474.31;4134826;28;20023;-73
2023/08/09 06:30:18;;;;;;;4.72;3.10;;;14.60;99.90;;;14.04;100.00;101469.66;4135866;28;20047;-72
2023/08/09 06:32:18;;;;;;;3.50;3.13;;;14.60;99.90;;;14.13;100.00;101471.34;4134511;28;20065;-72
2023/08/09 06:34:19;;;;;;;4.57;3.75;;;14.70;99.90;;;14.17;100.00;101475.34;4136046;28;20030;-72
2023/08/09 06:36:20;;;;;;;3.78;3.08;;;14.70;99.90;;;14.18;100.00;101474.38;4134991;28;20486;-72
2023/08/09 06:38:21;;;;;;;4.75;3.22;;;14.80;99.90;;;14.11;100.00;101452.13;4134741;28;20041;-72
2023/08/09 06:40:22;;;;;;;3.95;3.35;;;14.80;99.90;;;14.29;100.00;101484.69;4133428;28;20042;-72
2023/08/09 06:42:23;;;;;;;3.70;2.70;;;14.90;99.90;;;14.36;100.00;101483.09;4119861;28;20027;-72
2023/08/09 06:44:24;;;;;;;4.53;2.75;;;14.90;99.90;;;14.48;100.00;101490.72;4119866;28;20090;-73
2023/08/09 06:46:25;;;;;;;3.58;2.80;;;15.00;99.90;;;14.57;100.00;101489.75;4119518;28;20026;-72
2023/08/09 06:48:29;;;;;;;5.30;3.10;;;15.00;99.90;;;14.63;100.00;101497.06;4132278;28;20027;-72
2023/08/09 06:50:30;;;;;;;4.47;3.17;;;15.10;99.90;;;14.64;100.00;101493.41;4127524;28;20019;-72
2023/08/09 06:52:33;;;;;;;5.00;2.88;;;15.20;99.90;;;14.74;100.00;101504.72;4119726;28;20117;-72
2023/08/09 06:54:34;;;;;;;5.28;3.22;;;15.20;99.90;;;14.77;100.00;101493.75;4120678;28;20058;-73
2023/08/09 06:56:36;;;;;;;6.60;3.58;;;15.30;99.90;;;14.78;100.00;101496.22;4134556;28;20030;-72
2023/08/09 06:58:36;;;;;;;5.65;3.58;;;15.40;99.90;;;14.85;100.00;101499.91;4119126;28;20055;-72
2023/08/09 07:00:37;;;;;;;3.17;2.53;;;15.40;99.90;;;14.91;100.00;101501.06;4119597;28;20041;-72
2023/08/09 07:02:38;;;;;;;4.35;3.10;;;15.50;99.90;;;14.94;100.00;101501.56;4119699;28;20031;-73
2023/08/09 07:04:39;;;;;;;4.60;2.85;;;15.50;99.90;;;14.99;100.00;101494.94;4119638;28;20066;-72
2023/08/09 07:06:40;;;;;;;4.18;2.85;;;15.60;99.90;;;15.08;100.00;101508.06;4118740;28;20034;-72
2023/08/09 07:08:41;;;;;;;5.82;3.00;;;15.60;99.90;;;15.13;100.00;101505.72;4119788;28;20105;-72
2023/08/09 07:10:42;;;;;;;4.20;2.92;;;15.70;99.90;;;15.17;100.00;101492.94;4119851;28;20026;-72
2023/08/09 07:12:43;;;;;;;5.05;3.28;;;15.70;99.90;;;15.26;100.00;101507.88;4119397;28;20106;-72
2023/08/09 07:14:45;;;;;;;6.25;3.33;;;15.80;99.90;;;15.31;100.00;101505.53;4118474;28;20019;-72
2023/08/09 07:16:46;;;;;;;4.57;2.80;;;15.90;99.90;;;15.38;100.00;101503.88;4130290;28;20031;-72
2023/08/09 07:18:46;;;;;;;4.32;2.65;;;15.90;99.90;;;15.44;100.00;101505.88;4125567;28;20509;-72
2023/08/09 07:20:47;;;;;;;2.75;2.50;;;16.00;99.90;;;15.50;100.00;101508.69;4118160;28;20022;-72
2023/08/09 07:22:48;;;;;;;6.82;2.72;;;16.10;99.90;;;15.57;100.00;101508.00;4119477;28;20023;-72
2023/08/09 07:24:49;;;;;;;5.55;3.33;;;16.20;99.90;;;15.63;100.00;101510.00;4121419;28;20027;-72
2023/08/09 07:26:50;;;;;;;3.97;3.38;;;16.20;99.90;;;15.68;100.00;101515.66;4121399;28;20069;-72
2023/08/09 07:28:51;;;;;;;4.32;2.83;;;16.30;99.90;;;15.74;100.00;101510.44;4118083;28;20031;-73
2023/08/09 07:30:51;;;;;;;9.35;3.42;;;16.30;99.90;;;15.77;100.00;101509.31;4122217;28;20051;-72
2023/08/09 07:32:52;;;;;;;3.58;2.67;;;16.40;99.90;;;15.85;100.00;101517.25;4121305;28;20372;-72
2023/08/09 07:34:53;;;;;;;5.45;3.00;;;16.50;99.90;;;15.93;100.00;101523.38;4121211;28;20031;-72
2023/08/09 07:36:54;;;;;;;6.65;2.97;;;16.50;99.90;;;15.98;100.00;101522.84;4122489;28;20027;-72
2023/08/09 07:38:57;;;;;;;4.28;2.67;;;16.60;99.90;;;16.00;100.00;101512.88;4126628;28;20033;-73
2023/08/09 07:40:57;;;;;;;5.45;3.00;;;16.60;99.90;;;16.11;100.00;101527.63;4132349;28;20487;-72
2023/08/09 07:43:00;;;;;;;2.80;2.50;;;16.70;99.90;;;16.19;100.00;101523.09;4122305;28;20030;-72
2023/08/09 07:45:02;;;;;;;5.55;2.75;;;16.80;99.90;;;16.27;100.00;101515.09;4122180;28;20027;-73
2023/08/09 07:47:03;;;;;;;4.03;2.67;;;16.80;99.90;;;16.35;100.00;101516.88;4104646;28;20027;-72
2023/08/09 07:49:04;;;;;;;4.10;2.83;;;16.90;99.90;;;16.42;100.00;101516.00;4122534;28;20023;-72
2023/08/09 07:51:06;;;;;;;5.55;2.80;;;17.00;99.90;;;16.54;100.00;101519.97;4137089;28;20057;-73
2023/08/09 07:53:07;;;;;;;5.47;2.80;;;17.10;99.90;;;16.63;100.00;101517.25;4138340;28;20018;-73
2023/08/09 07:55:11;;;;;;;3.05;2.28;;;17.20;99.90;;;16.66;100.00;101512.41;4136922;28;20026;-72
2023/08/09 07:57:12;;;;;;;;;;;17.30;99.90;;;16.67;100.00;101500.72;4137500;28;20038;-72
2023/08/09 07:59:13;;;;;;;3.20;2.67;;;17.30;99.90;;;16.79;100.00;101511.78;4136983;28;19916;-73
2023/08/09 08:01:15;;;;;;;3.70;2.17;;;17.40;99.90;;;16.88;100.00;101506.22;4136559;28;20034;-73
2023/08/09 08:03:16;;;;;;;4.80;2.95;;;17.50;99.90;;;16.98;100.00;101511.31;4136767;28;20053;-73
2023/08/09 08:05:17;;;;;;;4.32;2.50;;;17.60;99.90;;;17.08;100.00;101518.03;4137100;28;20034;-73
2023/08/09 08:07:18;;;;;;;4.55;2.60;;;17.60;99.90;;;17.18;100.00;101520.47;4138170;28;20076;-72
2023/08/09 08:09:19;;;;;;;2.53;2.10;;;17.70;99.90;;;17.33;100.00;101521.34;4137403;28;20482;-73
2023/08/09 08:11:20;;;;;;;3.60;2.13;;;17.80;99.90;;;17.42;100.00;101514.91;4139560;28;20121;-73
2023/08/09 08:13:22;;;;;;;4.50;2.40;;;17.90;99.90;;;17.48;100.00;101514.19;4121649;28;20035;-73
2023/08/09 08:15:23;;;;;;;3.08;2.13;;;18.00;99.90;;;17.58;100.00;101516.63;4133571;28;20023;-73
2023/08/09 08:17:24;;;;;;;2.40;2.10;;;18.10;99.90;;;17.66;100.00;101517.38;4125143;28;20065;-73
2023/08/09 08:19:25;;;;;;;3.63;2.30;;;18.20;99.90;;;17.71;100.00;101516.84;4121573;28;20027;-73
2023/08/09 08:21:25;;;;;;;2.42;1.75;;;18.30;99.90;;;17.84;100.00;101524.16;4120367;28;20522;-72